createdAt,value
2022-11-17T00:01:36.182Z,99959.32
2022-11-17T00:06:35.630Z,99958.95000000001
2022-11-17T00:11:45.510Z,99964.28
2022-11-17T00:16:35.877Z,99962.36
2022-11-17T00:21:35.595Z,99966.97
2022-11-17T00:26:45.855Z,99969.53
2022-11-17T00:31:45.694Z,99973.69
2022-11-17T00:36:37.873Z,99974.1
2022-11-17T00:41:35.610Z,99970.23000000001
2022-11-17T00:46:37.499Z,99977.17
2022-11-17T00:51:36.680Z,99979.66
2022-11-17T00:56:35.823Z,99983.83
2022-11-17T01:01:37.045Z,99987.98000000001
2022-11-17T01:06:37.727Z,99984.36
2022-11-17T01:11:35.590Z,99985.56999999999
2022-11-17T01:16:35.904Z,99988.5
2022-11-17T01:21:35.472Z,99985.82
2022-11-17T01:26:36.247Z,99997.27
2022-11-17T01:31:39.144Z,99997.19
2022-11-17T01:36:47.726Z,99994.2
2022-11-17T01:41:35.468Z,100001.26000000001
2022-11-17T01:46:38.773Z,100002.04
2022-11-17T01:51:42.481Z,99991.88
2022-11-17T01:56:39.168Z,99994.94
2022-11-17T02:01:45.558Z,99988.98000000001
2022-11-17T02:06:35.834Z,100003.64
2022-11-17T02:11:35.566Z,99998.97
2022-11-17T02:16:35.626Z,99997.38
2022-11-17T02:21:55.517Z,99991.33
2022-11-17T02:26:53.141Z,99989.56
2022-11-17T02:31:41.732Z,99982.97
2022-11-17T02:36:40.934Z,99985.43
2022-11-17T02:41:43.885Z,99985.65999999999
2022-11-17T02:46:43.629Z,99983.81000000001
2022-11-17T02:51:37.603Z,99979.12
2022-11-17T02:56:39.262Z,99981.01000000001
2022-11-17T03:01:55.476Z,99976.68
2022-11-17T03:06:43.659Z,99973.95
2022-11-17T03:11:42.439Z,99975.62000000001
2022-11-17T03:16:42.232Z,99980.17
2022-11-17T03:21:39.674Z,99978.93000000001
2022-11-17T03:26:40.186Z,99981.12
2022-11-17T03:31:37.584Z,99986.23999999999
2022-11-17T03:36:39.120Z,99986.19
2022-11-17T03:41:40.732Z,99981.19
2022-11-17T03:46:38.323Z,99978.13
2022-11-17T03:51:37.292Z,99984.09
2022-11-17T03:56:43.608Z,99988.87
2022-11-17T04:01:36.027Z,99983.2
2022-11-17T04:06:35.507Z,99975.3
2022-11-17T04:11:45.358Z,99978.02
2022-11-17T04:16:35.508Z,99970.54000000001
2022-11-17T04:21:35.735Z,99973.63
2022-11-17T04:26:45.371Z,99977.23
2022-11-17T04:31:35.478Z,99978.38
2022-11-17T04:36:39.238Z,99984.16
2022-11-17T04:41:45.257Z,99991.92
2022-11-17T04:46:37.035Z,99988.25
2022-11-17T04:51:36.088Z,99980.47
2022-11-17T04:56:36.084Z,99986.55
2022-11-17T05:01:36.211Z,99990.77
2022-11-17T05:06:38.167Z,99982.61
2022-11-17T05:11:45.175Z,99987.87
2022-11-17T05:16:45.410Z,99984.83
2022-11-17T05:21:35.348Z,99979.47
2022-11-17T05:26:37.286Z,99983.8
2022-11-17T05:31:35.945Z,99984.91
2022-11-17T05:36:35.523Z,99982.2
2022-11-17T05:41:36.348Z,99983.04000000001
2022-11-17T05:46:35.786Z,99985.31
2022-11-17T05:51:36.915Z,99976.87
2022-11-17T05:56:39.037Z,99980.97
2022-11-17T06:01:38.630Z,99985.99
2022-11-17T06:06:36.706Z,99988.23
2022-11-17T06:11:35.410Z,99992.5
2022-11-17T06:16:40.758Z,99993.8
2022-11-17T06:22:04.566Z,99994.83
2022-11-17T06:26:35.941Z,99998.11
2022-11-17T06:31:37.403Z,99997.34999999999
2022-11-17T06:36:35.568Z,100001.47
2022-11-17T06:41:35.664Z,100005.86
2022-11-17T06:46:37.070Z,100003.99
2022-11-17T06:51:35.409Z,100015.59
2022-11-17T06:56:35.358Z,100013.89
2022-11-17T07:01:36.403Z,100008.36
2022-11-17T07:06:35.961Z,100012.95
2022-11-17T07:11:35.326Z,100003.17
2022-11-17T07:16:35.631Z,100009.34
2022-11-17T07:21:36.222Z,100015.45
2022-11-17T07:26:35.186Z,100006.76
2022-11-17T07:31:35.664Z,100010.37
2022-11-17T07:36:35.160Z,100014.75
2022-11-17T07:41:35.361Z,100026.37
2022-11-17T07:46:35.471Z,100025.86
2022-11-17T07:51:35.163Z,100031.14
2022-11-17T07:56:35.211Z,100032.67
2022-11-17T08:01:35.644Z,100039.9
2022-11-17T08:06:35.445Z,100039.04
2022-11-17T08:11:35.986Z,100039.28
2022-11-17T08:16:36.058Z,100033.95000000001
2022-11-17T08:21:36.286Z,100025.56
2022-11-17T08:26:35.165Z,100033.48
2022-11-17T08:31:35.884Z,100028.99
2022-11-17T08:36:35.152Z,100020.11
2022-11-17T08:41:35.165Z,100026.92
2022-11-17T08:46:35.335Z,100021.37
2022-11-17T08:51:35.444Z,100021.82
2022-11-17T08:56:35.290Z,100028.59
2022-11-17T09:01:35.534Z,100032.05
2022-11-17T09:06:35.134Z,100033.0
2022-11-17T09:11:35.149Z,100033.1
2022-11-17T09:16:35.863Z,100034.73
2022-11-17T09:21:35.585Z,100030.82
2022-11-17T09:26:39.911Z,100026.81
2022-11-17T09:31:36.119Z,100032.62
2022-11-17T09:36:35.695Z,100017.3
2022-11-17T09:41:40.543Z,100023.82
2022-11-17T09:46:45.615Z,100011.14
2022-11-17T09:51:39.165Z,99999.81
2022-11-17T09:56:35.868Z,100000.93000000001
2022-11-17T10:01:35.277Z,99993.73000000001
2022-11-17T10:06:36.513Z,99998.73999999999
2022-11-17T10:11:38.256Z,99994.59000000001
2022-11-17T10:16:36.094Z,99989.23
2022-11-17T10:21:37.068Z,99981.72
2022-11-17T10:26:45.816Z,99983.59
2022-11-17T10:31:44.237Z,99988.47
2022-11-17T10:36:35.542Z,99983.14
2022-11-17T10:41:39.238Z,99983.6
2022-11-17T10:46:55.445Z,99980.48999999999
2022-11-17T10:51:35.115Z,99979.13
2022-11-17T10:56:41.881Z,99977.11
2022-11-17T11:01:37.327Z,99980.2
2022-11-17T11:06:35.253Z,99977.73
2022-11-17T11:11:41.581Z,99968.98
2022-11-17T11:16:34.952Z,99969.01000000001
2022-11-17T11:21:50.843Z,99964.36
2022-11-17T11:26:46.561Z,99963.73
2022-11-17T11:31:46.729Z,99958.18000000001
2022-11-17T11:36:41.218Z,99950.87
2022-11-17T11:41:48.156Z,99956.47
2022-11-17T11:46:45.498Z,99953.59
2022-11-17T11:51:37.823Z,99947.97
2022-11-17T11:56:39.968Z,99945.54000000001
2022-11-17T11:59:35.835Z,99947.85
2022-11-17T12:01:44.971Z,99947.85
2022-11-17T12:06:42.891Z,99953.41
2022-11-17T12:11:48.715Z,99952.36
2022-11-17T12:16:35.801Z,99951.14
2022-11-17T12:21:35.379Z,99952.81
2022-11-17T12:26:35.669Z,99942.69
2022-11-17T12:31:43.691Z,99944.09000000001
2022-11-17T12:36:35.234Z,99939.43000000001
2022-11-17T12:41:54.977Z,99924.59
2022-11-17T12:46:35.407Z,99925.28
2022-11-17T12:51:40.182Z,99915.81
2022-11-17T12:56:44.142Z,99913.69
2022-11-17T13:01:41.247Z,99917.83
2022-11-17T13:06:36.505Z,99906.89
2022-11-17T13:11:35.744Z,99903.63
2022-11-17T13:16:36.836Z,99897.74
2022-11-17T13:21:34.862Z,99900.11
2022-11-17T13:26:37.138Z,99900.87
2022-11-17T13:31:35.103Z,99898.22
2022-11-17T13:36:35.767Z,99900.64
2022-11-17T13:41:38.286Z,99894.08
2022-11-17T13:46:34.853Z,99892.1
2022-11-17T13:51:37.875Z,99887.3
2022-11-17T13:56:38.460Z,99892.72
2022-11-17T14:01:35.011Z,99894.09000000001
2022-11-17T14:06:53.356Z,99895.81
2022-11-17T14:11:40.674Z,99897.63
2022-11-17T14:16:38.099Z,99898.97
2022-11-17T14:21:35.021Z,99896.26
2022-11-17T14:26:42.313Z,99894.8
2022-11-17T14:31:34.966Z,99892.61
2022-11-17T14:36:37.083Z,99893.16
2022-11-17T14:41:35.310Z,99886.41
2022-11-17T14:46:35.538Z,99896.08
2022-11-17T14:51:35.567Z,99888.89
2022-11-17T14:56:35.257Z,99894.04
2022-11-17T15:01:37.453Z,99887.34
2022-11-17T15:06:36.626Z,99895.11
2022-11-17T15:11:39.425Z,99898.6
2022-11-17T15:16:35.028Z,99892.83
2022-11-17T15:21:35.001Z,99885.22
2022-11-17T15:26:35.226Z,99894.03
2022-11-17T15:31:34.921Z,99901.05
2022-11-17T15:36:34.841Z,99893.59
2022-11-17T15:41:36.125Z,99886.83
2022-11-17T15:46:35.020Z,99885.25
2022-11-17T15:51:35.233Z,99882.75
2022-11-17T15:56:36.159Z,99881.87000000001
2022-11-17T16:01:36.308Z,99877.78
2022-11-17T16:06:36.554Z,99876.33
2022-11-17T16:11:35.921Z,99886.51999999999
2022-11-17T16:16:37.456Z,99890.31
2022-11-17T16:21:34.716Z,99888.87
2022-11-17T16:26:34.897Z,99890.8
2022-11-17T16:31:36.488Z,99892.75
2022-11-17T16:36:37.714Z,99883.75
2022-11-17T16:41:37.558Z,99880.0
2022-11-17T16:46:34.888Z,99882.70999999999
2022-11-17T16:51:34.716Z,99886.06
2022-11-17T16:56:35.424Z,99877.12
2022-11-17T17:01:34.820Z,99873.68000000001
2022-11-17T17:06:39.525Z,99866.52
2022-11-17T17:11:36.274Z,99870.42
2022-11-17T17:16:36.921Z,99863.31
2022-11-17T17:21:36.387Z,99868.38
2022-11-17T17:26:36.915Z,99865.5
2022-11-17T17:31:36.684Z,99861.15999999999
2022-11-17T17:36:36.405Z,99851.65
2022-11-17T17:41:38.753Z,99846.97
2022-11-17T17:46:37.355Z,99831.61
2022-11-17T17:51:36.943Z,99833.51
2022-11-17T17:56:35.202Z,99835.12
2022-11-17T18:01:36.530Z,99839.17
2022-11-17T18:06:37.095Z,99834.41
2022-11-17T18:11:35.959Z,99833.44
2022-11-17T18:16:34.602Z,99826.51
2022-11-17T18:21:35.196Z,99820.4
2022-11-17T18:26:35.876Z,99817.35
2022-11-17T18:31:35.726Z,99814.54
2022-11-17T18:36:34.932Z,99821.64
2022-11-17T18:41:35.701Z,99816.26
2022-11-17T18:46:34.603Z,99809.89
2022-11-17T18:51:34.942Z,99806.64
2022-11-17T18:56:36.558Z,99804.66
2022-11-17T19:01:34.812Z,99814.23999999999
2022-11-17T19:06:34.863Z,99807.79
2022-11-17T19:11:35.860Z,99790.36
2022-11-17T19:16:39.588Z,99790.20000000001
2022-11-17T19:21:34.762Z,99797.5
2022-11-17T19:26:35.183Z,99783.58
2022-11-17T19:31:35.924Z,99780.66
2022-11-17T19:36:34.644Z,99783.47
2022-11-17T19:41:37.790Z,99783.15
2022-11-17T19:46:35.379Z,99787.09
2022-11-17T19:51:36.017Z,99783.0
2022-11-17T19:53:27.872Z,99779.74
2022-11-17T19:56:35.485Z,99779.74
2022-11-17T20:01:34.721Z,99776.48000000001
2022-11-17T20:06:36.894Z,99780.48999999999
2022-11-17T20:11:36.388Z,99785.72
2022-11-17T20:16:35.779Z,99781.09
2022-11-17T20:21:35.136Z,99772.76000000001
2022-11-17T20:26:34.858Z,99773.33
2022-11-17T20:31:35.696Z,99775.67
2022-11-17T20:36:34.964Z,99772.83
2022-11-17T20:41:34.691Z,99766.27
2022-11-17T20:46:34.908Z,99755.93000000001
2022-11-17T20:51:35.553Z,99746.27
2022-11-17T20:56:34.565Z,99754.58
2022-11-17T21:01:35.214Z,99746.88
2022-11-17T21:06:35.289Z,99747.79999999999
2022-11-17T21:11:44.318Z,99734.58
2022-11-17T21:16:36.155Z,99733.06
2022-11-17T21:21:35.379Z,99726.17
2022-11-17T21:26:34.970Z,99719.62
2022-11-17T21:31:35.409Z,99716.8
2022-11-17T21:36:34.919Z,99715.91
2022-11-17T21:41:34.448Z,99711.61
2022-11-17T21:46:35.413Z,99712.73999999999
2022-11-17T21:51:37.545Z,99709.17
2022-11-17T21:56:35.477Z,99703.56
2022-11-17T22:01:35.501Z,99696.7
2022-11-17T22:06:34.430Z,99695.53
2022-11-17T22:11:34.718Z,99702.51
2022-11-17T22:16:37.145Z,99706.8
2022-11-17T22:21:35.525Z,99701.17
2022-11-17T22:26:37.256Z,99694.06999999999
2022-11-17T22:31:34.901Z,99696.06
2022-11-17T22:36:35.422Z,99698.61
2022-11-17T22:41:34.424Z,99694.15000000001
2022-11-17T22:46:35.529Z,99688.61
2022-11-17T22:51:44.288Z,99690.07
2022-11-17T22:56:35.251Z,99689.56
2022-11-17T23:01:35.104Z,99688.65
2022-11-17T23:06:34.388Z,99688.31
2022-11-17T23:11:37.556Z,99692.11
2022-11-17T23:16:35.913Z,99694.12
2022-11-17T23:21:34.343Z,99699.75
2022-11-17T23:26:34.936Z,99703.97
2022-11-17T23:31:35.539Z,99705.11
2022-11-17T23:36:34.327Z,99689.37
2022-11-17T23:41:34.607Z,99683.83
2022-11-17T23:46:35.954Z,99683.95000000001
2022-11-17T23:51:35.534Z,99679.26999999999
2022-11-17T23:56:34.299Z,99670.37
